Time;durP1;ratioP1;P1;durP2;ratioP2;P2;SDS_P1;SDS_P2;PMS_P1;PMS_P2;Temp;Humidity;BMP_temperature;BMP_pressure;BME280_temperature;BME280_humidity;BME280_pressure;Samples;Min_cycle;Max_cycle;Signal;HPM_P1;HPM_P2
2022/01/14 00:00:27;;;;;;;;;;;;;;;;;;2111793;28;19920;-44
2022/01/14 00:01:28;;;;;;;;;;;;;;;;;;2105504;28;19930;-45
2022/01/14 00:02:28;;;;;;;;;;;;;;;;;;2107072;28;19920;-44
2022/01/14 00:03:29;;;;;;;;;;;;;;;;;;2105089;28;19973;-44
2022/01/14 00:04:30;;;;;;;;;;;;;;;;;;2115256;28;20325;-43
2022/01/14 00:05:31;;;;;;;;;;;;;;;;;;2111940;28;19973;-45
2022/01/14 00:06:32;;;;;;;;;;;;;;;;;;2105356;28;20070;-43
2022/01/14 00:07:33;;;;;;;;;;;;;;;;;;2115273;28;19927;-43
2022/01/14 00:08:34;;;;;;;;;;;;;;;;;;2114838;28;19923;-44
2022/01/14 00:09:35;;;;;;;;;;;;;;;;;;2106311;28;20277;-43
2022/01/14 00:10:36;;;;;;;;;;;;;;;;;;2106913;28;19919;-43
2022/01/14 00:11:39;;;;;;;;;;;;;;;;;;2104734;28;19927;-44
2022/01/14 00:12:47;;;;;;;;;;;;;;;;;;2101565;28;19920;-44
2022/01/14 00:13:55;;;;;;;;;;;;;;;;;;2098433;28;20106;-44
2022/01/14 00:15:00;;;;;;;;;;;;;;;;;;2101923;28;19967;-45
2022/01/14 00:16:00;;;;;;;;;;;;;;;;;;2098459;28;20011;-44
2022/01/14 00:17:02;;;;;;;;;;;;;;;;;;2098357;28;20293;-44
2022/01/14 00:18:02;;;;;;;;;;;;;;;;;;2107340;28;19920;-44
2022/01/14 00:19:03;;;;;;;;;;;;;;;;;;2115185;28;19920;-44
2022/01/14 00:20:04;;;;;;;;;;;;;;;;;;2112854;28;19968;-44
2022/01/14 00:21:05;;;;;;;;;;;;;;;;;;2110573;28;19992;-44
2022/01/14 00:22:09;;;;;;;;;;;;;;;;;;2115333;28;19919;-44
2022/01/14 00:23:10;;;;;;;;;;;;;;;;;;2111346;28;20617;-45
2022/01/14 00:24:14;;;;;;;;;;;;;;;;;;2105897;28;19920;-44
2022/01/14 00:31:55;;;;;;;;;;;;;;;;;;2106199;28;20057;-46
2022/01/14 00:33:00;;;;;;;;;;;;;;;;;;2098372;28;19920;-46
2022/01/14 00:34:02;;;;;;;;;;;;;;;;;;2098393;28;19928;-47
2022/01/14 00:35:02;;;;;;;;;;;;;;;;;;2108301;28;20014;-47
2022/01/14 00:36:03;;;;;;;;;;;;;;;;;;2115181;28;19927;-47
2022/01/14 00:37:04;;;;;;;;;;;;;;;;;;2112676;28;19927;-48
2022/01/14 00:38:05;;;;;;;;;;;;;;;;;;2105135;28;20484;-47
2022/01/14 00:39:07;;;;;;;;;;;;;;;;;;2106620;28;19920;-50
2022/01/14 00:40:08;;;;;;;;;;;;;;;;;;2106821;28;20454;-50
2022/01/14 00:41:09;;;;;;;;;;;;;;;;;;2105299;28;19977;-49
2022/01/14 00:42:10;;;;;;;;;;;;;;;;;;2106838;28;20003;-47
2022/01/14 00:43:10;;;;;;;;;;;;;;;;;;2105773;28;19928;-50
2022/01/14 00:44:11;;;;;;;;;;;;;;;;;;2106628;28;19927;-49
2022/01/14 00:45:12;;;;;;;;;;;;;;;;;;2106796;28;20380;-50
2022/01/14 00:46:13;;;;;;;;;;;;;;;;;;2106048;28;20258;-49
2022/01/14 00:47:14;;;;;;;;;;;;;;;;;;2098378;28;19946;-48
2022/01/14 00:48:18;;;;;;;;;;;;;;;;;;2097927;28;19927;-48
2022/01/14 00:49:20;;;;;;;;;;;;;;;;;;2108806;28;19927;-49
2022/01/14 00:50:21;;;;;;;;;;;;;;;;;;2115069;28;20361;-48
2022/01/14 00:51:21;;;;;;;;;;;;;;;;;;2110191;28;19926;-49
2022/01/14 00:52:22;;;;;;;;;;;;;;;;;;2101070;28;19959;-49
2022/01/14 00:53:23;;;;;;;;;;;;;;;;;;2098336;28;20423;-47
2022/01/14 00:54:26;;;;;;;;;;;;;;;;;;2100547;28;20159;-48
2022/01/14 00:55:29;;;;;;;;;;;;;;;;;;2099213;28;20434;-48
2022/01/14 00:56:32;;;;;;;;;;;;;;;;;;2098278;28;19978;-48
2022/01/14 01:00:08;;;;;;;;;;;;;;;;;;2100851;28;20377;-48
2022/01/14 01:01:09;;;;;;;;;;;;;;;;;;2098849;28;19966;-50
2022/01/14 01:02:10;;;;;;;;;;;;;;;;;;2104683;28;19920;-47
2022/01/14 01:03:11;;;;;;;;;;;;;;;;;;2103230;28;19920;-48
2022/01/14 01:04:12;;;;;;;;;;;;;;;;;;2098145;28;20282;-49
2022/01/14 01:05:14;;;;;;;;;;;;;;;;;;2097913;28;19936;-51
2022/01/14 01:06:14;;;;;;;;;;;;;;;;;;2105153;28;20597;-48
2022/01/14 01:07:16;;;;;;;;;;;;;;;;;;2098211;28;19920;-49
2022/01/14 01:08:22;;;;;;;;;;;;;;;;;;2098206;28;19931;-49
2022/01/14 01:09:24;;;;;;;;;;;;;;;;;;2105544;28;20014;-49
2022/01/14 01:10:25;;;;;;;;;;;;;;;;;;2106593;28;20007;-48
2022/01/14 01:11:31;;;;;;;;;;;;;;;;;;2106773;28;20288;-48
2022/01/14 01:12:37;;;;;;;;;;;;;;;;;;2105889;28;20010;-48
2022/01/14 01:13:43;;;;;;;;;;;;;;;;;;2106408;28;20406;-48
2022/01/14 01:14:47;;;;;;;;;;;;;;;;;;2104888;28;20012;-51
2022/01/14 01:15:49;;;;;;;;;;;;;;;;;;2106653;28;20014;-48
2022/01/14 01:16:50;;;;;;;;;;;;;;;;;;2105884;28;19919;-48
2022/01/14 01:17:51;;;;;;;;;;;;;;;;;;2104049;28;20368;-47
2022/01/14 01:18:51;;;;;;;;;;;;;;;;;;2106551;28;19926;-48
2022/01/14 01:19:52;;;;;;;;;;;;;;;;;;2106090;28;19928;-46
2022/01/14 01:20:53;;;;;;;;;;;;;;;;;;2105731;28;19926;-46
2022/01/14 01:21:54;;;;;;;;;;;;;;;;;;2106348;28;19935;-47
2022/01/14 01:22:55;;;;;;;;;;;;;;;;;;2103947;28;19924;-50
2022/01/14 01:23:56;;;;;;;;;;;;;;;;;;2114828;28;19920;-48
2022/01/14 01:24:57;;;;;;;;;;;;;;;;;;2115115;28;19965;-47
2022/01/14 01:26:07;;;;;;;;;;;;;;;;;;2102961;28;19920;-54
2022/01/14 01:27:08;;;;;;;;;;;;;;;;;;2098191;28;19926;-53
2022/01/14 01:28:09;;;;;;;;;;;;;;;;;;2098210;28;20003;-54
2022/01/14 01:29:30;;;;;;;;;;;;;;;;;;2100943;28;20396;-53
2022/01/14 01:31:02;;;;;;;;;;;;;;;;;;2098073;28;20003;-50
2022/01/14 01:32:03;;;;;;;;;;;;;;;;;;2111759;28;19968;-51
2022/01/14 01:33:04;;;;;;;;;;;;;;;;;;2114712;28;19950;-51
2022/01/14 01:34:04;;;;;;;;;;;;;;;;;;2107897;28;19920;-53
2022/01/14 01:35:05;;;;;;;;;;;;;;;;;;2099174;28;19927;-51
2022/01/14 01:36:06;;;;;;;;;;;;;;;;;;2097991;28;19998;-50
2022/01/14 01:37:07;;;;;;;;;;;;;;;;;;2105999;28;19919;-51
2022/01/14 01:38:08;;;;;;;;;;;;;;;;;;2097910;28;19920;-51
2022/01/14 01:39:09;;;;;;;;;;;;;;;;;;2097979;28;19966;-49
2022/01/14 01:40:09;;;;;;;;;;;;;;;;;;2104152;28;20386;-50
2022/01/14 01:41:12;;;;;;;;;;;;;;;;;;2106374;28;19920;-49
2022/01/14 01:42:13;;;;;;;;;;;;;;;;;;2104384;28;20363;-48
2022/01/14 01:43:16;;;;;;;;;;;;;;;;;;2103685;28;19920;-48
2022/01/14 01:44:17;;;;;;;;;;;;;;;;;;2097843;28;19924;-49
2022/01/14 01:45:22;;;;;;;;;;;;;;;;;;2101612;28;19920;-51
2022/01/14 01:46:23;;;;;;;;;;;;;;;;;;2098654;28;20365;-49
2022/01/14 01:47:24;;;;;;;;;;;;;;;;;;2098030;28;20028;-48
2022/01/14 01:48:25;;;;;;;;;;;;;;;;;;2103749;28;19920;-48
2022/01/14 01:49:26;;;;;;;;;;;;;;;;;;2114718;28;20246;-49
2022/01/14 01:50:27;;;;;;;;;;;;;;;;;;2114776;28;19969;-49
2022/01/14 01:51:27;;;;;;;;;;;;;;;;;;2106306;28;20292;-48
2022/01/14 01:52:28;;;;;;;;;;;;;;;;;;2114724;28;19965;-48
2022/01/14 01:53:31;;;;;;;;;;;;;;;;;;2112493;28;19926;-48
2022/01/14 01:54:32;;;;;;;;;;;;;;;;;;2108962;28;20365;-49
2022/01/14 01:55:32;;;;;;;;;;;;;;;;;;2111021;28;19920;-51
2022/01/14 01:56:33;;;;;;;;;;;;;;;;;;2104002;28;19929;-47
2022/01/14 01:57:34;;;;;;;;;;;;;;;;;;2100502;28;19924;-50
2022/01/14 01:58:35;;;;;;;;;;;;;;;;;;2105764;28;19968;-49
2022/01/14 01:59:36;;;;;;;;;;;;;;;;;;2103805;28;19927;-48
2022/01/14 02:00:37;;;;;;;;;;;;;;;;;;2098842;28;20425;-48
2022/01/14 02:01:38;;;;;;;;;;;;;;;;;;2097765;28;19974;-48
2022/01/14 02:02:39;;;;;;;;;;;;;;;;;;2103593;28;20001;-48
2022/01/14 02:03:39;;;;;;;;;;;;;;;;;;2114753;28;19920;-47
2022/01/14 02:04:40;;;;;;;;;;;;;;;;;;2114686;28;19926;-47
2022/01/14 02:05:41;;;;;;;;;;;;;;;;;;2108620;28;20027;-47
2022/01/14 02:06:42;;;;;;;;;;;;;;;;;;2114747;28;19920;-47
2022/01/14 02:07:42;;;;;;;;;;;;;;;;;;2112661;28;19920;-51
2022/01/14 02:08:43;;;;;;;;;;;;;;;;;;2109854;28;19923;-47
2022/01/14 02:09:44;;;;;;;;;;;;;;;;;;2114734;28;19924;-50
2022/01/14 02:10:45;;;;;;;;;;;;;;;;;;2111031;28;19920;-48
2022/01/14 02:11:46;;;;;;;;;;;;;;;;;;2101424;28;19924;-46
2022/01/14 02:12:50;;;;;;;;;;;;;;;;;;2097902;28;19971;-48
2022/01/14 02:13:53;;;;;;;;;;;;;;;;;;2103796;28;20120;-47
2022/01/14 02:15:07;;;;;;;;;;;;;;;;;;2106129;28;20019;-48
2022/01/14 02:16:30;;;;;;;;;;;;;;;;;;2105081;28;20398;-47
2022/01/14 02:17:46;;;;;;;;;;;;;;;;;;2099565;28;19928;-46
2022/01/14 02:19:10;;;;;;;;;;;;;;;;;;2097797;28;20031;-47
2022/01/14 02:22:49;;;;;;;;;;;;;;;;;;2108389;28;19978;-48
2022/01/14 02:23:53;;;;;;;;;;;;;;;;;;2116005;28;20073;-48
2022/01/14 02:24:58;;;;;;;;;;;;;;;;;;2113186;28;20010;-47
2022/01/14 02:25:59;;;;;;;;;;;;;;;;;;2105573;28;20487;-47
2022/01/14 02:26:59;;;;;;;;;;;;;;;;;;2107398;28;19973;-50
2022/01/14 02:28:00;;;;;;;;;;;;;;;;;;2105235;28;20354;-48
2022/01/14 02:29:01;;;;;;;;;;;;;;;;;;2099709;28;19927;-47
2022/01/14 02:30:02;;;;;;;;;;;;;;;;;;2099356;28;19927;-48
2022/01/14 02:31:02;;;;;;;;;;;;;;;;;;2102718;28;19927;-49
2022/01/14 02:32:03;;;;;;;;;;;;;;;;;;2099042;28;19920;-48
2022/01/14 02:33:04;;;;;;;;;;;;;;;;;;2099005;28;20404;-47
2022/01/14 02:34:05;;;;;;;;;;;;;;;;;;2105949;28;20451;-47
2022/01/14 02:35:06;;;;;;;;;;;;;;;;;;2107643;28;19927;-48
2022/01/14 02:36:16;;;;;;;;;;;;;;;;;;2106603;28;19972;-49
2022/01/14 02:37:20;;;;;;;;;;;;;;;;;;2101695;28;20030;-49
2022/01/14 02:38:20;;;;;;;;;;;;;;;;;;2099076;28;20011;-47
2022/01/14 02:39:21;;;;;;;;;;;;;;;;;;2103037;28;20441;-49
2022/01/14 02:40:22;;;;;;;;;;;;;;;;;;2111371;28;19920;-47
2022/01/14 02:41:23;;;;;;;;;;;;;;;;;;2107559;28;19942;-46
2022/01/14 02:42:24;;;;;;;;;;;;;;;;;;2103682;28;20362;-48
2022/01/14 02:43:26;;;;;;;;;;;;;;;;;;2099043;28;19931;-46
2022/01/14 02:44:29;;;;;;;;;;;;;;;;;;2099143;28;20377;-47
2022/01/14 02:45:32;;;;;;;;;;;;;;;;;;2107793;28;20007;-48
2022/01/14 02:46:38;;;;;;;;;;;;;;;;;;2107322;28;19963;-47
2022/01/14 02:47:39;;;;;;;;;;;;;;;;;;2107605;28;19920;-50
2022/01/14 02:48:40;;;;;;;;;;;;;;;;;;2102083;28;19981;-48
2022/01/14 02:49:41;;;;;;;;;;;;;;;;;;2098991;28;19927;-46
2022/01/14 02:50:52;;;;;;;;;;;;;;;;;;2105341;28;19927;-48
2022/01/14 02:51:53;;;;;;;;;;;;;;;;;;2107264;28;19970;-47
2022/01/14 02:52:57;;;;;;;;;;;;;;;;;;2107104;28;19931;-49
2022/01/14 02:53:59;;;;;;;;;;;;;;;;;;2106397;28;20056;-48
2022/01/14 02:55:13;;;;;;;;;;;;;;;;;;2107522;28;20010;-46
2022/01/14 02:56:15;;;;;;;;;;;;;;;;;;2105331;28;20007;-47
2022/01/14 02:57:15;;;;;;;;;;;;;;;;;;2106232;28;20359;-46
2022/01/14 02:58:16;;;;;;;;;;;;;;;;;;2107537;28;19920;-48
2022/01/14 02:59:17;;;;;;;;;;;;;;;;;;2107872;28;19930;-49
2022/01/14 03:00:18;;;;;;;;;;;;;;;;;;2098924;28;20026;-48
2022/01/14 03:01:19;;;;;;;;;;;;;;;;;;2099137;28;19926;-50
2022/01/14 03:02:20;;;;;;;;;;;;;;;;;;2105757;28;19920;-46
2022/01/14 03:03:24;;;;;;;;;;;;;;;;;;2107490;28;20094;-47
2022/01/14 03:04:24;;;;;;;;;;;;;;;;;;2105661;28;19924;-48
2022/01/14 03:05:25;;;;;;;;;;;;;;;;;;2105601;28;19927;-48
2022/01/14 03:06:26;;;;;;;;;;;;;;;;;;2099007;28;20300;-48
2022/01/14 03:07:27;;;;;;;;;;;;;;;;;;2100219;28;19927;-48
2022/01/14 03:08:28;;;;;;;;;;;;;;;;;;2101080;28;19927;-47
2022/01/14 03:09:28;;;;;;;;;;;;;;;;;;2099022;28;19920;-49
2022/01/14 03:10:29;;;;;;;;;;;;;;;;;;2103007;28;20277;-47
2022/01/14 03:11:30;;;;;;;;;;;;;;;;;;2107094;28;19974;-48
2022/01/14 03:12:31;;;;;;;;;;;;;;;;;;2107194;28;19928;-47
2022/01/14 03:13:32;;;;;;;;;;;;;;;;;;2104988;28;19920;-46
2022/01/14 03:14:33;;;;;;;;;;;;;;;;;;2107203;28;20383;-46
2022/01/14 03:15:33;;;;;;;;;;;;;;;;;;2106936;28;19920;-47
2022/01/14 03:16:39;;;;;;;;;;;;;;;;;;2107892;28;19985;-47
2022/01/14 03:17:41;;;;;;;;;;;;;;;;;;2115697;28;19927;-51
2022/01/14 03:18:45;;;;;;;;;;;;;;;;;;2112241;28;20403;-48
2022/01/14 03:19:47;;;;;;;;;;;;;;;;;;2113726;28;19965;-48
2022/01/14 03:20:50;;;;;;;;;;;;;;;;;;2115541;28;20061;-47
2022/01/14 03:21:53;;;;;;;;;;;;;;;;;;2110456;28;20044;-47
2022/01/14 03:23:04;;;;;;;;;;;;;;;;;;2107153;28;20014;-48
2022/01/14 03:24:17;;;;;;;;;;;;;;;;;;2106795;28;20452;-49
2022/01/14 03:25:37;;;;;;;;;;;;;;;;;;2101860;28;20319;-48
2022/01/14 03:26:37;;;;;;;;;;;;;;;;;;2098866;28;20019;-48
2022/01/14 03:27:38;;;;;;;;;;;;;;;;;;2104530;28;20123;-48
2022/01/14 03:28:39;;;;;;;;;;;;;;;;;;2115578;28;20036;-48
2022/01/14 03:29:40;;;;;;;;;;;;;;;;;;2115465;28;19923;-47
2022/01/14 03:30:41;;;;;;;;;;;;;;;;;;2107370;28;20361;-47
2022/01/14 03:31:42;;;;;;;;;;;;;;;;;;2107258;28;19926;-49
2022/01/14 03:32:43;;;;;;;;;;;;;;;;;;2106639;28;19927;-48
2022/01/14 03:33:43;;;;;;;;;;;;;;;;;;2109684;28;19920;-52
2022/01/14 03:34:44;;;;;;;;;;;;;;;;;;2114582;28;19928;-47
2022/01/14 03:35:45;;;;;;;;;;;;;;;;;;2112789;28;19920;-47
2022/01/14 03:36:46;;;;;;;;;;;;;;;;;;2105473;28;20361;-47
2022/01/14 03:37:49;;;;;;;;;;;;;;;;;;2107093;28;20011;-48
2022/01/14 03:38:50;;;;;;;;;;;;;;;;;;2105983;28;19927;-48
2022/01/14 03:39:51;;;;;;;;;;;;;;;;;;2106969;28;19973;-48
2022/01/14 03:40:52;;;;;;;;;;;;;;;;;;2098684;28;19935;-48
2022/01/14 03:41:52;;;;;;;;;;;;;;;;;;2106773;28;19923;-50
2022/01/14 03:42:53;;;;;;;;;;;;;;;;;;2098860;28;20366;-47
2022/01/14 03:43:54;;;;;;;;;;;;;;;;;;2098292;28;19921;-48
2022/01/14 03:44:55;;;;;;;;;;;;;;;;;;2102585;28;19928;-48
2022/01/14 03:45:56;;;;;;;;;;;;;;;;;;2098659;28;19969;-50
2022/01/14 03:46:56;;;;;;;;;;;;;;;;;;2098986;28;19928;-47
2022/01/14 03:47:57;;;;;;;;;;;;;;;;;;2107517;28;19928;-48
2022/01/14 03:48:58;;;;;;;;;;;;;;;;;;2107195;28;20258;-50
2022/01/14 03:49:59;;;;;;;;;;;;;;;;;;2104730;28;19947;-48
2022/01/14 03:51:00;;;;;;;;;;;;;;;;;;2106613;28;20004;-48
2022/01/14 03:52:01;;;;;;;;;;;;;;;;;;2106946;28;19927;-47
2022/01/14 03:53:02;;;;;;;;;;;;;;;;;;2105888;28;19928;-47
2022/01/14 03:54:03;;;;;;;;;;;;;;;;;;2098741;28;20018;-48
2022/01/14 03:55:04;;;;;;;;;;;;;;;;;;2098595;28;19927;-48
2022/01/14 03:56:19;;;;;;;;;;;;;;;;;;2105620;28;20381;-47
2022/01/14 03:57:20;;;;;;;;;;;;;;;;;;2098517;28;19921;-47
2022/01/14 03:58:21;;;;;;;;;;;;;;;;;;2101671;28;19970;-49
2022/01/14 03:59:22;;;;;;;;;;;;;;;;;;2112843;28;19919;-49
2022/01/14 04:00:22;;;;;;;;;;;;;;;;;;2115408;28;19923;-48
2022/01/14 04:01:23;;;;;;;;;;;;;;;;;;2111565;28;20400;-47
2022/01/14 04:02:24;;;;;;;;;;;;;;;;;;2100239;28;20462;-48
2022/01/14 04:03:25;;;;;;;;;;;;;;;;;;2098557;28;20302;-49
2022/01/14 04:04:26;;;;;;;;;;;;;;;;;;2102360;28;19927;-48
2022/01/14 04:05:27;;;;;;;;;;;;;;;;;;2115483;28;19920;-49
2022/01/14 04:06:30;;;;;;;;;;;;;;;;;;2115381;28;19966;-48
2022/01/14 04:07:31;;;;;;;;;;;;;;;;;;2106230;28;20339;-47
2022/01/14 04:08:32;;;;;;;;;;;;;;;;;;2106921;28;19925;-49
2022/01/14 04:09:36;;;;;;;;;;;;;;;;;;2105304;28;19920;-49
2022/01/14 04:10:37;;;;;;;;;;;;;;;;;;2102305;28;20481;-47
2022/01/14 04:11:39;;;;;;;;;;;;;;;;;;2098503;28;19921;-47
2022/01/14 04:12:48;;;;;;;;;;;;;;;;;;2100977;28;19999;-52
2022/01/14 04:13:51;;;;;;;;;;;;;;;;;;2098565;28;20020;-47
2022/01/14 04:16:12;;;;;;;;;;;;;;;;;;2113567;28;20014;-48
2022/01/14 04:17:12;;;;;;;;;;;;;;;;;;2115340;28;19976;-48
2022/01/14 04:18:15;;;;;;;;;;;;;;;;;;2106974;28;19927;-48
2022/01/14 04:19:15;;;;;;;;;;;;;;;;;;2115208;28;20010;-51
2022/01/14 04:20:16;;;;;;;;;;;;;;;;;;2115208;28;20026;-48
2022/01/14 04:21:20;;;;;;;;;;;;;;;;;;2103622;28;20394;-48
2022/01/14 04:22:21;;;;;;;;;;;;;;;;;;2098519;28;19920;-49
2022/01/14 04:23:22;;;;;;;;;;;;;;;;;;2098832;28;19920;-49
2022/01/14 04:24:23;;;;;;;;;;;;;;;;;;2104833;28;20556;-48
2022/01/14 04:25:24;;;;;;;;;;;;;;;;;;2098662;28;20260;-48
2022/01/14 04:26:25;;;;;;;;;;;;;;;;;;2101310;28;19924;-48
2022/01/14 04:27:26;;;;;;;;;;;;;;;;;;2100432;28;20273;-50
2022/01/14 04:28:27;;;;;;;;;;;;;;;;;;2098397;28;20316;-49
2022/01/14 04:29:27;;;;;;;;;;;;;;;;;;2102163;28;19928;-49
2022/01/14 04:30:28;;;;;;;;;;;;;;;;;;2106195;28;19965;-49
2022/01/14 04:31:29;;;;;;;;;;;;;;;;;;2106714;28;20386;-48
2022/01/14 04:32:30;;;;;;;;;;;;;;;;;;2105801;28;19919;-48
2022/01/14 04:33:30;;;;;;;;;;;;;;;;;;2098326;28;19920;-48
2022/01/14 04:34:31;;;;;;;;;;;;;;;;;;2098399;28;19973;-49
2022/01/14 04:35:32;;;;;;;;;;;;;;;;;;2105469;28;19943;-48
2022/01/14 04:36:33;;;;;;;;;;;;;;;;;;2115183;28;19920;-48
2022/01/14 04:37:34;;;;;;;;;;;;;;;;;;2112973;28;19968;-48
2022/01/14 04:38:35;;;;;;;;;;;;;;;;;;2109080;28;19928;-48
2022/01/14 04:39:35;;;;;;;;;;;;;;;;;;2115097;28;19927;-49
2022/01/14 04:40:37;;;;;;;;;;;;;;;;;;2106521;28;19963;-48
2022/01/14 04:41:38;;;;;;;;;;;;;;;;;;2100898;28;20342;-50
2022/01/14 04:42:41;;;;;;;;;;;;;;;;;;2098370;28;19921;-50
2022/01/14 04:43:42;;;;;;;;;;;;;;;;;;2102325;28;20061;-49
2022/01/14 04:44:42;;;;;;;;;;;;;;;;;;2107760;28;20415;-50
2022/01/14 04:45:56;;;;;;;;;;;;;;;;;;2106667;28;19920;-49
2022/01/14 04:47:12;;;;;;;;;;;;;;;;;;2105014;28;19955;-52
2022/01/14 04:48:13;;;;;;;;;;;;;;;;;;2106781;28;19920;-50
2022/01/14 04:49:14;;;;;;;;;;;;;;;;;;2105739;28;20270;-51
2022/01/14 04:50:15;;;;;;;;;;;;;;;;;;2113928;28;19928;-50
2022/01/14 04:51:16;;;;;;;;;;;;;;;;;;2114906;28;19919;-48
2022/01/14 04:52:17;;;;;;;;;;;;;;;;;;2106925;28;19920;-48
2022/01/14 04:53:17;;;;;;;;;;;;;;;;;;2114925;28;19923;-49
2022/01/14 04:54:18;;;;;;;;;;;;;;;;;;2115073;28;19942;-49
2022/01/14 04:55:19;;;;;;;;;;;;;;;;;;2105126;28;19927;-49
2022/01/14 04:56:20;;;;;;;;;;;;;;;;;;2098311;28;19965;-47
2022/01/14 04:57:21;;;;;;;;;;;;;;;;;;2098176;28;19920;-49
2022/01/14 04:58:22;;;;;;;;;;;;;;;;;;2105867;28;20002;-48
2022/01/14 04:59:23;;;;;;;;;;;;;;;;;;2098344;28;19927;-48
2022/01/14 05:00:24;;;;;;;;;;;;;;;;;;2098391;28;19920;-48
2022/01/14 05:01:25;;;;;;;;;;;;;;;;;;2111355;28;19972;-47
2022/01/14 05:02:27;;;;;;;;;;;;;;;;;;2114982;28;19926;-49
2022/01/14 05:03:27;;;;;;;;;;;;;;;;;;2107790;28;20015;-50
2022/01/14 05:04:29;;;;;;;;;;;;;;;;;;2113872;28;19928;-48
2022/01/14 05:05:33;;;;;;;;;;;;;;;;;;2115303;28;19994;-48
2022/01/14 05:06:34;;;;;;;;;;;;;;;;;;2106277;28;20516;-48
2022/01/14 05:07:35;;;;;;;;;;;;;;;;;;2098300;28;19970;-50
2022/01/14 05:08:38;;;;;;;;;;;;;;;;;;2098328;28;19965;-47
2022/01/14 05:09:43;;;;;;;;;;;;;;;;;;2107563;28;20008;-47
2022/01/14 05:11:00;;;;;;;;;;;;;;;;;;2114985;28;19920;-48
2022/01/14 05:12:07;;;;;;;;;;;;;;;;;;2109394;28;20002;-49
2022/01/14 05:13:07;;;;;;;;;;;;;;;;;;2106165;28;20357;-49
2022/01/14 05:14:08;;;;;;;;;;;;;;;;;;2106495;28;19927;-50
2022/01/14 05:15:09;;;;;;;;;;;;;;;;;;2104084;28;20305;-50
2022/01/14 05:16:10;;;;;;;;;;;;;;;;;;2106365;28;20323;-48
2022/01/14 05:17:11;;;;;;;;;;;;;;;;;;2105996;28;19920;-48
2022/01/14 05:18:12;;;;;;;;;;;;;;;;;;2105661;28;19927;-48
2022/01/14 05:19:12;;;;;;;;;;;;;;;;;;2106648;28;19920;-49
2022/01/14 05:20:13;;;;;;;;;;;;;;;;;;2104264;28;20521;-49
2022/01/14 05:21:14;;;;;;;;;;;;;;;;;;2103242;28;20019;-48
2022/01/14 05:22:15;;;;;;;;;;;;;;;;;;2098044;28;20292;-49
2022/01/14 05:23:16;;;;;;;;;;;;;;;;;;2099918;28;19920;-48
2022/01/14 05:24:17;;;;;;;;;;;;;;;;;;2099676;28;19920;-48
2022/01/14 05:25:18;;;;;;;;;;;;;;;;;;2097969;28;19924;-48
2022/01/14 05:26:18;;;;;;;;;;;;;;;;;;2101764;28;19920;-53
2022/01/14 05:27:19;;;;;;;;;;;;;;;;;;2106363;28;20381;-49
2022/01/14 05:28:20;;;;;;;;;;;;;;;;;;2106041;28;19926;-49
2022/01/14 05:29:21;;;;;;;;;;;;;;;;;;2110563;28;19927;-48
2022/01/14 05:30:21;;;;;;;;;;;;;;;;;;2114933;28;20372;-48
2022/01/14 05:31:22;;;;;;;;;;;;;;;;;;2109702;28;20400;-49
2022/01/14 05:32:24;;;;;;;;;;;;;;;;;;2100589;28;19926;-49
2022/01/14 05:33:25;;;;;;;;;;;;;;;;;;2098053;28;19960;-49
2022/01/14 05:34:26;;;;;;;;;;;;;;;;;;2102003;28;20284;-50
2022/01/14 05:35:27;;;;;;;;;;;;;;;;;;2114603;28;19942;-48
2022/01/14 05:36:28;;;;;;;;;;;;;;;;;;2114690;28;19973;-49
2022/01/14 05:37:29;;;;;;;;;;;;;;;;;;2106610;28;19920;-53
2022/01/14 05:38:30;;;;;;;;;;;;;;;;;;2114754;28;20322;-51
2022/01/14 05:39:31;;;;;;;;;;;;;;;;;;2114809;28;19920;-50
2022/01/14 05:40:31;;;;;;;;;;;;;;;;;;2106865;28;19924;-51
2022/01/14 05:41:32;;;;;;;;;;;;;;;;;;2106423;28;20388;-52
2022/01/14 05:42:34;;;;;;;;;;;;;;;;;;2104280;28;19926;-49
2022/01/14 05:43:34;;;;;;;;;;;;;;;;;;2101462;28;19920;-48
2022/01/14 05:44:35;;;;;;;;;;;;;;;;;;2098081;28;19994;-52
2022/01/14 05:45:36;;;;;;;;;;;;;;;;;;2100504;28;19968;-49
2022/01/14 05:46:37;;;;;;;;;;;;;;;;;;2113130;28;20253;-51
2022/01/14 05:47:38;;;;;;;;;;;;;;;;;;2114766;28;20007;-49
2022/01/14 05:48:39;;;;;;;;;;;;;;;;;;2108355;28;21308;-49
2022/01/14 05:49:40;;;;;;;;;;;;;;;;;;2098236;28;19927;-49
2022/01/14 05:50:41;;;;;;;;;;;;;;;;;;2097908;28;19928;-49
2022/01/14 05:51:42;;;;;;;;;;;;;;;;;;2103508;28;19927;-49
2022/01/14 05:52:43;;;;;;;;;;;;;;;;;;2097865;28;19974;-50
2022/01/14 05:53:43;;;;;;;;;;;;;;;;;;2097671;28;19997;-50
2022/01/14 05:54:44;;;;;;;;;;;;;;;;;;2104431;28;19951;-50
2022/01/14 05:55:45;;;;;;;;;;;;;;;;;;2106381;28;19931;-53
2022/01/14 05:56:46;;;;;;;;;;;;;;;;;;2105638;28;19924;-50
2022/01/14 05:57:47;;;;;;;;;;;;;;;;;;2111665;28;19924;-49
2022/01/14 05:58:47;;;;;;;;;;;;;;;;;;2116207;28;19920;-49
2022/01/14 05:59:48;;;;;;;;;;;;;;;;;;2110024;28;19933;-52
2022/01/14 06:00:49;;;;;;;;;;;;;;;;;;2101047;28;19966;-50
2022/01/14 06:01:50;;;;;;;;;;;;;;;;;;2099459;28;19920;-49
2022/01/14 06:02:51;;;;;;;;;;;;;;;;;;2103900;28;20006;-50
2022/01/14 06:03:52;;;;;;;;;;;;;;;;;;2099321;28;19920;-50
2022/01/14 06:04:53;;;;;;;;;;;;;;;;;;2099483;28;19920;-52
2022/01/14 06:05:54;;;;;;;;;;;;;;;;;;2105388;28;20361;-51
2022/01/14 06:06:55;;;;;;;;;;;;;;;;;;2107610;28;19965;-50
2022/01/14 06:07:56;;;;;;;;;;;;;;;;;;2106618;28;19924;-49
2022/01/14 06:08:56;;;;;;;;;;;;;;;;;;2103136;28;19920;-49
2022/01/14 06:09:57;;;;;;;;;;;;;;;;;;2099336;28;19921;-48
2022/01/14 06:10:58;;;;;;;;;;;;;;;;;;2099668;28;19947;-49
2022/01/14 06:11:59;;;;;;;;;;;;;;;;;;2102175;28;19924;-48
2022/01/14 06:12:59;;;;;;;;;;;;;;;;;;2099475;28;19924;-49
2022/01/14 06:14:00;;;;;;;;;;;;;;;;;;2103093;28;19920;-49
2022/01/14 06:15:01;;;;;;;;;;;;;;;;;;2106827;28;19920;-49
2022/01/14 06:16:02;;;;;;;;;;;;;;;;;;2107780;28;19920;-49
2022/01/14 06:17:03;;;;;;;;;;;;;;;;;;2106374;28;20331;-49
2022/01/14 06:18:04;;;;;;;;;;;;;;;;;;2099401;28;19927;-49
2022/01/14 06:19:04;;;;;;;;;;;;;;;;;;2099262;28;19920;-49
2022/01/14 06:20:05;;;;;;;;;;;;;;;;;;2107399;28;20338;-50
2022/01/14 06:21:06;;;;;;;;;;;;;;;;;;2115968;28;19926;-49
2022/01/14 06:22:07;;;;;;;;;;;;;;;;;;2114079;28;19966;-48
2022/01/14 06:23:08;;;;;;;;;;;;;;;;;;2102959;28;19920;-49
2022/01/14 06:24:09;;;;;;;;;;;;;;;;;;2099309;28;19920;-48
2022/01/14 06:25:09;;;;;;;;;;;;;;;;;;2099684;28;20266;-52
2022/01/14 06:26:10;;;;;;;;;;;;;;;;;;2112552;28;19926;-50
2022/01/14 06:27:11;;;;;;;;;;;;;;;;;;2115988;28;19919;-50
2022/01/14 06:28:12;;;;;;;;;;;;;;;;;;2109274;28;19928;-50
2022/01/14 06:29:13;;;;;;;;;;;;;;;;;;2100497;28;20377;-50
2022/01/14 06:30:14;;;;;;;;;;;;;;;;;;2099184;28;20309;-49
2022/01/14 06:31:14;;;;;;;;;;;;;;;;;;2103098;28;19920;-50
2022/01/14 06:32:15;;;;;;;;;;;;;;;;;;2099299;28;20285;-51
2022/01/14 06:33:16;;;;;;;;;;;;;;;;;;2098613;28;19981;-48
2022/01/14 06:34:17;;;;;;;;;;;;;;;;;;2102948;28;20377;-49
2022/01/14 06:35:18;;;;;;;;;;;;;;;;;;2099259;28;19925;-49
2022/01/14 06:36:18;;;;;;;;;;;;;;;;;;2102626;28;19920;-51
2022/01/14 06:37:19;;;;;;;;;;;;;;;;;;2107075;28;19920;-48
2022/01/14 06:38:20;;;;;;;;;;;;;;;;;;2107431;28;19927;-49
2022/01/14 06:39:21;;;;;;;;;;;;;;;;;;2106300;28;19973;-49
2022/01/14 06:40:22;;;;;;;;;;;;;;;;;;2103996;28;19966;-51
2022/01/14 06:41:23;;;;;;;;;;;;;;;;;;2107470;28;19920;-50
2022/01/14 06:42:24;;;;;;;;;;;;;;;;;;2106353;28;19921;-52
2022/01/14 06:43:24;;;;;;;;;;;;;;;;;;2107541;28;19920;-49
2022/01/14 06:44:26;;;;;;;;;;;;;;;;;;2107668;28;19923;-49
2022/01/14 06:45:26;;;;;;;;;;;;;;;;;;2106098;28;19920;-49
2022/01/14 06:46:27;;;;;;;;;;;;;;;;;;2098998;28;19927;-50
2022/01/14 06:47:28;;;;;;;;;;;;;;;;;;2100475;28;19951;-48
2022/01/14 06:48:29;;;;;;;;;;;;;;;;;;2106537;28;19920;-48
2022/01/14 06:49:29;;;;;;;;;;;;;;;;;;2107582;28;20285;-51
2022/01/14 06:50:30;;;;;;;;;;;;;;;;;;2105246;28;20381;-52
2022/01/14 06:51:31;;;;;;;;;;;;;;;;;;2101011;28;19926;-52
2022/01/14 06:52:32;;;;;;;;;;;;;;;;;;2099013;28;20285;-49
2022/01/14 06:53:33;;;;;;;;;;;;;;;;;;2103308;28;19920;-49
2022/01/14 06:54:33;;;;;;;;;;;;;;;;;;2099361;28;19969;-50
2022/01/14 06:55:34;;;;;;;;;;;;;;;;;;2099456;28;20324;-50
2022/01/14 06:56:38;;;;;;;;;;;;;;;;;;2106863;28;19924;-49
2022/01/14 06:57:41;;;;;;;;;;;;;;;;;;2115802;28;20280;-51
2022/01/14 06:58:42;;;;;;;;;;;;;;;;;;2113735;28;19919;-51
2022/01/14 06:59:43;;;;;;;;;;;;;;;;;;2109706;28;19942;-50
2022/01/14 07:00:43;;;;;;;;;;;;;;;;;;2115941;28;20295;-49
2022/01/14 07:01:44;;;;;;;;;;;;;;;;;;2110908;28;19961;-49
2022/01/14 07:02:45;;;;;;;;;;;;;;;;;;2106214;28;20405;-49
2022/01/14 07:03:46;;;;;;;;;;;;;;;;;;2107335;28;19975;-51
2022/01/14 07:04:47;;;;;;;;;;;;;;;;;;2106387;28;20395;-49
2022/01/14 07:05:48;;;;;;;;;;;;;;;;;;2100179;28;19921;-50
2022/01/14 07:06:48;;;;;;;;;;;;;;;;;;2098957;28;19942;-54
2022/01/14 07:07:49;;;;;;;;;;;;;;;;;;2103612;28;20282;-50
2022/01/14 07:08:50;;;;;;;;;;;;;;;;;;2098829;28;19921;-53
2022/01/14 07:09:56;;;;;;;;;;;;;;;;;;2097938;28;19921;-50
2022/01/14 07:10:57;;;;;;;;;;;;;;;;;;2105169;28;20011;-51
2022/01/14 07:11:59;;;;;;;;;;;;;;;;;;2107327;28;19927;-54
2022/01/14 07:13:00;;;;;;;;;;;;;;;;;;2105852;28;20014;-52
2022/01/14 07:14:01;;;;;;;;;;;;;;;;;;2104996;28;19920;-53
2022/01/14 07:15:02;;;;;;;;;;;;;;;;;;2098845;28;19920;-55
2022/01/14 07:16:02;;;;;;;;;;;;;;;;;;2100506;28;20305;-52